sensor_id;sensor_type;location;lat;lon;timestamp;P1;durP1;ratioP1;P2;durP2;ratioP2
33672;SDS011;20011;51.510;9.942;2023-07-09T00:01:50;9.18;;;5.90;;
33672;SDS011;20011;51.510;9.942;2023-07-09T00:04:18;12.68;;;5.47;;
33672;SDS011;20011;51.510;9.942;2023-07-09T00:06:45;11.98;;;5.45;;
33672;SDS011;20011;51.510;9.942;2023-07-09T00:09:19;8.25;;;5.32;;
33672;SDS011;20011;51.510;9.942;2023-07-09T00:11:48;10.48;;;5.65;;
33672;SDS011;20011;51.510;9.942;2023-07-09T00:14:17;7.70;;;4.95;;
33672;SDS011;20011;51.510;9.942;2023-07-09T00:16:45;7.72;;;5.22;;
33672;SDS011;20011;51.510;9.942;2023-07-09T00:19:16;7.25;;;5.10;;
33672;SDS011;20011;51.510;9.942;2023-07-09T00:24:12;12.05;;;5.72;;
33672;SDS011;20011;51.510;9.942;2023-07-09T00:26:39;7.82;;;5.35;;
33672;SDS011;20011;51.510;9.942;2023-07-09T00:29:10;10.10;;;5.32;;
33672;SDS011;20011;51.510;9.942;2023-07-09T00:31:38;13.20;;;5.55;;
33672;SDS011;20011;51.510;9.942;2023-07-09T00:34:08;7.13;;;5.35;;
33672;SDS011;20011;51.510;9.942;2023-07-09T00:36:41;8.25;;;5.95;;
33672;SDS011;20011;51.510;9.942;2023-07-09T00:39:18;8.05;;;5.53;;
33672;SDS011;20011;51.510;9.942;2023-07-09T00:41:47;10.15;;;5.10;;
33672;SDS011;20011;51.510;9.942;2023-07-09T00:44:31;14.20;;;7.43;;
33672;SDS011;20011;51.510;9.942;2023-07-09T00:49:31;9.75;;;5.65;;
33672;SDS011;20011;51.510;9.942;2023-07-09T00:54:44;12.98;;;5.95;;
33672;SDS011;20011;51.510;9.942;2023-07-09T00:57:14;9.45;;;5.18;;
33672;SDS011;20011;51.510;9.942;2023-07-09T00:59:46;9.93;;;5.75;;
33672;SDS011;20011;51.510;9.942;2023-07-09T01:02:17;11.75;;;6.07;;
33672;SDS011;20011;51.510;9.942;2023-07-09T01:04:53;8.65;;;5.65;;
33672;SDS011;20011;51.510;9.942;2023-07-09T01:07:30;9.98;;;6.00;;
33672;SDS011;20011;51.510;9.942;2023-07-09T01:09:57;11.07;;;6.28;;
33672;SDS011;20011;51.510;9.942;2023-07-09T01:12:24;9.07;;;5.97;;
33672;SDS011;20011;51.510;9.942;2023-07-09T01:14:53;12.02;;;5.88;;
33672;SDS011;20011;51.510;9.942;2023-07-09T01:17:26;10.25;;;5.88;;
33672;SDS011;20011;51.510;9.942;2023-07-09T01:19:55;8.77;;;6.40;;
33672;SDS011;20011;51.510;9.942;2023-07-09T01:22:23;9.20;;;5.93;;
33672;SDS011;20011;51.510;9.942;2023-07-09T01:27:24;7.57;;;5.38;;
33672;SDS011;20011;51.510;9.942;2023-07-09T01:29:54;8.25;;;5.78;;
33672;SDS011;20011;51.510;9.942;2023-07-09T01:32:22;14.00;;;5.75;;
33672;SDS011;20011;51.510;9.942;2023-07-09T01:34:50;11.43;;;5.55;;
33672;SDS011;20011;51.510;9.942;2023-07-09T01:37:23;19.73;;;6.18;;
33672;SDS011;20011;51.510;9.942;2023-07-09T01:39:52;12.52;;;6.05;;
33672;SDS011;20011;51.510;9.942;2023-07-09T01:42:20;8.93;;;6.25;;
33672;SDS011;20011;51.510;9.942;2023-07-09T01:44:49;10.52;;;5.68;;
33672;SDS011;20011;51.510;9.942;2023-07-09T01:47:17;11.57;;;6.03;;
33672;SDS011;20011;51.510;9.942;2023-07-09T01:49:45;9.65;;;5.90;;
33672;SDS011;20011;51.510;9.942;2023-07-09T01:52:15;12.70;;;5.53;;
33672;SDS011;20011;51.510;9.942;2023-07-09T01:54:45;7.85;;;5.97;;
33672;SDS011;20011;51.510;9.942;2023-07-09T01:57:20;11.35;;;5.28;;
33672;SDS011;20011;51.510;9.942;2023-07-09T01:59:55;11.85;;;6.07;;
33672;SDS011;20011;51.510;9.942;2023-07-09T02:02:22;10.50;;;5.80;;
33672;SDS011;20011;51.510;9.942;2023-07-09T02:04:51;8.15;;;5.88;;
33672;SDS011;20011;51.510;9.942;2023-07-09T02:07:20;8.45;;;5.47;;
33672;SDS011;20011;51.510;9.942;2023-07-09T02:09:50;8.77;;;5.40;;
33672;SDS011;20011;51.510;9.942;2023-07-09T02:12:17;7.78;;;5.53;;
33672;SDS011;20011;51.510;9.942;2023-07-09T02:14:45;15.05;;;6.18;;
33672;SDS011;20011;51.510;9.942;2023-07-09T02:17:13;10.25;;;5.97;;
33672;SDS011;20011;51.510;9.942;2023-07-09T02:19:41;8.07;;;5.45;;
33672;SDS011;20011;51.510;9.942;2023-07-09T02:22:08;12.27;;;5.45;;
33672;SDS011;20011;51.510;9.942;2023-07-09T02:24:36;8.07;;;5.95;;
33672;SDS011;20011;51.510;9.942;2023-07-09T02:27:04;8.80;;;5.25;;
33672;SDS011;20011;51.510;9.942;2023-07-09T02:29:33;12.90;;;6.13;;
33672;SDS011;20011;51.510;9.942;2023-07-09T02:32:01;10.15;;;5.95;;
33672;SDS011;20011;51.510;9.942;2023-07-09T02:34:29;7.78;;;5.63;;
33672;SDS011;20011;51.510;9.942;2023-07-09T02:36:57;6.90;;;5.55;;
33672;SDS011;20011;51.510;9.942;2023-07-09T02:39:25;8.25;;;5.53;;
33672;SDS011;20011;51.510;9.942;2023-07-09T02:41:53;11.48;;;5.70;;
33672;SDS011;20011;51.510;9.942;2023-07-09T02:44:20;10.85;;;5.50;;
33672;SDS011;20011;51.510;9.942;2023-07-09T02:46:47;16.90;;;6.70;;
33672;SDS011;20011;51.510;9.942;2023-07-09T02:49:14;8.95;;;5.80;;
33672;SDS011;20011;51.510;9.942;2023-07-09T02:51:42;11.25;;;6.65;;
33672;SDS011;20011;51.510;9.942;2023-07-09T02:54:09;11.55;;;6.25;;
33672;SDS011;20011;51.510;9.942;2023-07-09T02:56:36;13.70;;;6.45;;
33672;SDS011;20011;51.510;9.942;2023-07-09T02:59:04;12.88;;;5.85;;
33672;SDS011;20011;51.510;9.942;2023-07-09T03:01:31;11.48;;;6.60;;
33672;SDS011;20011;51.510;9.942;2023-07-09T03:04:01;11.30;;;6.30;;
33672;SDS011;20011;51.510;9.942;2023-07-09T03:06:30;9.95;;;6.60;;
33672;SDS011;20011;51.510;9.942;2023-07-09T03:09:02;9.82;;;6.47;;
33672;SDS011;20011;51.510;9.942;2023-07-09T03:11:31;12.15;;;6.05;;
33672;SDS011;20011;51.510;9.942;2023-07-09T03:14:00;11.90;;;5.40;;
33672;SDS011;20011;51.510;9.942;2023-07-09T03:16:28;8.55;;;5.28;;
33672;SDS011;20011;51.510;9.942;2023-07-09T03:18:57;12.97;;;5.47;;
33672;SDS011;20011;51.510;9.942;2023-07-09T03:21:24;12.90;;;6.32;;
33672;SDS011;20011;51.510;9.942;2023-07-09T03:23:53;9.93;;;5.57;;
33672;SDS011;20011;51.510;9.942;2023-07-09T03:26:21;8.68;;;5.85;;
33672;SDS011;20011;51.510;9.942;2023-07-09T03:28:48;18.25;;;6.30;;
33672;SDS011;20011;51.510;9.942;2023-07-09T03:31:15;10.45;;;6.60;;
33672;SDS011;20011;51.510;9.942;2023-07-09T03:33:42;10.90;;;5.68;;
33672;SDS011;20011;51.510;9.942;2023-07-09T03:36:09;9.73;;;5.00;;
33672;SDS011;20011;51.510;9.942;2023-07-09T03:38:36;15.57;;;5.93;;
33672;SDS011;20011;51.510;9.942;2023-07-09T03:41:03;10.35;;;5.70;;
33672;SDS011;20011;51.510;9.942;2023-07-09T03:43:31;11.50;;;5.45;;
33672;SDS011;20011;51.510;9.942;2023-07-09T03:45:58;11.05;;;5.50;;
33672;SDS011;20011;51.510;9.942;2023-07-09T03:48:25;11.32;;;5.75;;
33672;SDS011;20011;51.510;9.942;2023-07-09T03:50:52;12.48;;;5.55;;
33672;SDS011;20011;51.510;9.942;2023-07-09T03:53:19;12.73;;;5.70;;
33672;SDS011;20011;51.510;9.942;2023-07-09T03:55:46;8.52;;;5.65;;
33672;SDS011;20011;51.510;9.942;2023-07-09T03:58:17;12.55;;;5.50;;
33672;SDS011;20011;51.510;9.942;2023-07-09T04:00:44;8.85;;;5.60;;
33672;SDS011;20011;51.510;9.942;2023-07-09T04:03:11;14.75;;;6.10;;
33672;SDS011;20011;51.510;9.942;2023-07-09T04:05:38;11.95;;;6.25;;
33672;SDS011;20011;51.510;9.942;2023-07-09T04:08:05;10.43;;;5.60;;
33672;SDS011;20011;51.510;9.942;2023-07-09T04:10:32;10.48;;;6.03;;
33672;SDS011;20011;51.510;9.942;2023-07-09T04:12:59;11.50;;;5.35;;
33672;SDS011;20011;51.510;9.942;2023-07-09T04:15:26;13.02;;;5.75;;
33672;SDS011;20011;51.510;9.942;2023-07-09T04:17:53;9.75;;;5.90;;
33672;SDS011;20011;51.510;9.942;2023-07-09T04:20:21;16.23;;;5.95;;
33672;SDS011;20011;51.510;9.942;2023-07-09T04:22:48;9.52;;;6.25;;
33672;SDS011;20011;51.510;9.942;2023-07-09T04:25:16;11.90;;;6.50;;
33672;SDS011;20011;51.510;9.942;2023-07-09T04:27:43;15.52;;;5.30;;
33672;SDS011;20011;51.510;9.942;2023-07-09T04:30:12;8.40;;;6.00;;
33672;SDS011;20011;51.510;9.942;2023-07-09T04:32:42;8.73;;;5.90;;
33672;SDS011;20011;51.510;9.942;2023-07-09T04:35:10;12.32;;;5.50;;
33672;SDS011;20011;51.510;9.942;2023-07-09T04:37:38;12.52;;;6.45;;
33672;SDS011;20011;51.510;9.942;2023-07-09T04:40:07;12.20;;;5.85;;
33672;SDS011;20011;51.510;9.942;2023-07-09T04:42:37;14.82;;;5.65;;
33672;SDS011;20011;51.510;9.942;2023-07-09T04:45:06;13.18;;;6.22;;
33672;SDS011;20011;51.510;9.942;2023-07-09T04:47:35;10.60;;;5.83;;
33672;SDS011;20011;51.510;9.942;2023-07-09T04:50:03;10.20;;;5.80;;
33672;SDS011;20011;51.510;9.942;2023-07-09T04:52:31;9.52;;;5.70;;
33672;SDS011;20011;51.510;9.942;2023-07-09T04:54:58;9.57;;;5.78;;
33672;SDS011;20011;51.510;9.942;2023-07-09T04:57:26;5.93;;;5.10;;
33672;SDS011;20011;51.510;9.942;2023-07-09T04:59:53;19.83;;;5.97;;
33672;SDS011;20011;51.510;9.942;2023-07-09T05:02:21;17.95;;;5.57;;
33672;SDS011;20011;51.510;9.942;2023-07-09T05:04:49;9.20;;;5.60;;
33672;SDS011;20011;51.510;9.942;2023-07-09T05:07:16;11.50;;;5.45;;
33672;SDS011;20011;51.510;9.942;2023-07-09T05:09:43;8.73;;;5.55;;
33672;SDS011;20011;51.510;9.942;2023-07-09T05:12:10;17.52;;;5.63;;
33672;SDS011;20011;51.510;9.942;2023-07-09T05:14:38;11.25;;;5.10;;
33672;SDS011;20011;51.510;9.942;2023-07-09T05:17:05;17.02;;;6.57;;
33672;SDS011;20011;51.510;9.942;2023-07-09T05:19:33;16.50;;;5.97;;
33672;SDS011;20011;51.510;9.942;2023-07-09T05:22:00;10.77;;;5.22;;
33672;SDS011;20011;51.510;9.942;2023-07-09T05:24:27;9.18;;;5.82;;
33672;SDS011;20011;51.510;9.942;2023-07-09T05:26:54;12.00;;;6.78;;
33672;SDS011;20011;51.510;9.942;2023-07-09T05:29:22;12.07;;;6.47;;
33672;SDS011;20011;51.510;9.942;2023-07-09T05:31:50;12.77;;;6.00;;
33672;SDS011;20011;51.510;9.942;2023-07-09T05:34:17;14.05;;;6.25;;
33672;SDS011;20011;51.510;9.942;2023-07-09T05:36:44;11.75;;;6.00;;
33672;SDS011;20011;51.510;9.942;2023-07-09T05:39:11;12.48;;;6.32;;
33672;SDS011;20011;51.510;9.942;2023-07-09T05:41:38;9.40;;;7.07;;
33672;SDS011;20011;51.510;9.942;2023-07-09T05:44:05;13.55;;;6.38;;
33672;SDS011;20011;51.510;9.942;2023-07-09T05:46:35;8.55;;;5.85;;
33672;SDS011;20011;51.510;9.942;2023-07-09T05:49:06;14.32;;;7.00;;
33672;SDS011;20011;51.510;9.942;2023-07-09T05:54:00;13.27;;;6.65;;
33672;SDS011;20011;51.510;9.942;2023-07-09T05:56:28;22.90;;;6.30;;
33672;SDS011;20011;51.510;9.942;2023-07-09T05:58:55;12.45;;;6.50;;
33672;SDS011;20011;51.510;9.942;2023-07-09T06:01:23;8.95;;;6.47;;
33672;SDS011;20011;51.510;9.942;2023-07-09T06:03:50;20.73;;;6.30;;
33672;SDS011;20011;51.510;9.942;2023-07-09T06:06:17;12.05;;;6.38;;
33672;SDS011;20011;51.510;9.942;2023-07-09T06:08:44;11.07;;;6.38;;
33672;SDS011;20011;51.510;9.942;2023-07-09T06:11:11;9.40;;;6.25;;
33672;SDS011;20011;51.510;9.942;2023-07-09T06:13:38;10.93;;;6.60;;
33672;SDS011;20011;51.510;9.942;2023-07-09T06:16:05;13.95;;;6.07;;
33672;SDS011;20011;51.510;9.942;2023-07-09T06:18:33;13.73;;;6.50;;
33672;SDS011;20011;51.510;9.942;2023-07-09T06:21:00;13.85;;;6.47;;
33672;SDS011;20011;51.510;9.942;2023-07-09T06:23:29;10.50;;;6.28;;
33672;SDS011;20011;51.510;9.942;2023-07-09T06:25:56;16.95;;;6.35;;
33672;SDS011;20011;51.510;9.942;2023-07-09T06:28:24;11.45;;;6.50;;
33672;SDS011;20011;51.510;9.942;2023-07-09T06:30:52;22.33;;;6.85;;
33672;SDS011;20011;51.510;9.942;2023-07-09T06:33:19;11.38;;;6.65;;
33672;SDS011;20011;51.510;9.942;2023-07-09T06:35:50;7.72;;;6.32;;
33672;SDS011;20011;51.510;9.942;2023-07-09T06:38:19;11.90;;;6.40;;
33672;SDS011;20011;51.510;9.942;2023-07-09T06:40:47;10.73;;;5.53;;
33672;SDS011;20011;51.510;9.942;2023-07-09T06:43:14;12.45;;;6.32;;
33672;SDS011;20011;51.510;9.942;2023-07-09T06:48:17;11.77;;;5.82;;
33672;SDS011;20011;51.510;9.942;2023-07-09T06:50:44;11.52;;;5.95;;
33672;SDS011;20011;51.510;9.942;2023-07-09T06:53:11;14.88;;;6.10;;
33672;SDS011;20011;51.510;9.942;2023-07-09T06:55:38;9.93;;;6.45;;
33672;SDS011;20011;51.510;9.942;2023-07-09T06:58:05;15.10;;;6.40;;
33672;SDS011;20011;51.510;9.942;2023-07-09T07:00:33;10.00;;;5.90;;
33672;SDS011;20011;51.510;9.942;2023-07-09T07:03:01;11.68;;;6.75;;
33672;SDS011;20011;51.510;9.942;2023-07-09T07:05:31;9.50;;;6.25;;
33672;SDS011;20011;51.510;9.942;2023-07-09T07:07:59;12.00;;;5.82;;
33672;SDS011;20011;51.510;9.942;2023-07-09T07:10:27;11.73;;;6.00;;
33672;SDS011;20011;51.510;9.942;2023-07-09T07:12:54;12.80;;;6.30;;
33672;SDS011;20011;51.510;9.942;2023-07-09T07:15:21;11.38;;;6.38;;
33672;SDS011;20011;51.510;9.942;2023-07-09T07:17:48;8.45;;;5.93;;
33672;SDS011;20011;51.510;9.942;2023-07-09T07:20:16;7.13;;;5.63;;
33672;SDS011;20011;51.510;9.942;2023-07-09T07:22:43;9.07;;;5.85;;
33672;SDS011;20011;51.510;9.942;2023-07-09T07:25:10;10.13;;;5.32;;
33672;SDS011;20011;51.510;9.942;2023-07-09T07:27:37;12.77;;;5.68;;
33672;SDS011;20011;51.510;9.942;2023-07-09T07:30:05;8.55;;;6.10;;
33672;SDS011;20011;51.510;9.942;2023-07-09T07:32:37;7.90;;;5.55;;
33672;SDS011;20011;51.510;9.942;2023-07-09T07:35:08;10.70;;;5.47;;
33672;SDS011;20011;51.510;9.942;2023-07-09T07:37:35;9.27;;;6.10;;
33672;SDS011;20011;51.510;9.942;2023-07-09T07:40:02;16.48;;;6.07;;
33672;SDS011;20011;51.510;9.942;2023-07-09T07:42:31;10.77;;;5.55;;
33672;SDS011;20011;51.510;9.942;2023-07-09T07:44:58;8.18;;;5.65;;
33672;SDS011;20011;51.510;9.942;2023-07-09T07:47:25;7.45;;;5.53;;
33672;SDS011;20011;51.510;9.942;2023-07-09T07:49:53;11.82;;;5.10;;
33672;SDS011;20011;51.510;9.942;2023-07-09T07:52:20;13.98;;;5.50;;
33672;SDS011;20011;51.510;9.942;2023-07-09T07:54:47;11.43;;;6.07;;
33672;SDS011;20011;51.510;9.942;2023-07-09T07:57:14;7.65;;;5.35;;
33672;SDS011;20011;51.510;9.942;2023-07-09T07:59:41;10.75;;;6.13;;
33672;SDS011;20011;51.510;9.942;2023-07-09T08:02:10;11.32;;;5.28;;
33672;SDS011;20011;51.510;9.942;2023-07-09T08:04:39;7.93;;;5.32;;
33672;SDS011;20011;51.510;9.942;2023-07-09T08:07:07;7.00;;;5.57;;
33672;SDS011;20011;51.510;9.942;2023-07-09T08:09:36;7.50;;;5.38;;
33672;SDS011;20011;51.510;9.942;2023-07-09T08:12:04;11.02;;;5.60;;
33672;SDS011;20011;51.510;9.942;2023-07-09T08:14:41;7.43;;;5.07;;
33672;SDS011;20011;51.510;9.942;2023-07-09T08:17:10;5.57;;;4.38;;
33672;SDS011;20011;51.510;9.942;2023-07-09T08:19:47;10.57;;;5.47;;
33672;SDS011;20011;51.510;9.942;2023-07-09T08:22:16;7.10;;;4.78;;
33672;SDS011;20011;51.510;9.942;2023-07-09T08:24:43;7.03;;;4.22;;
33672;SDS011;20011;51.510;9.942;2023-07-09T08:27:10;5.90;;;4.70;;
33672;SDS011;20011;51.510;9.942;2023-07-09T08:29:37;8.00;;;4.93;;
33672;SDS011;20011;51.510;9.942;2023-07-09T08:32:04;7.07;;;5.18;;
33672;SDS011;20011;51.510;9.942;2023-07-09T08:34:31;6.43;;;4.57;;
33672;SDS011;20011;51.510;9.942;2023-07-09T08:36:58;5.85;;;4.10;;
33672;SDS011;20011;51.510;9.942;2023-07-09T08:39:25;6.72;;;4.15;;
33672;SDS011;20011;51.510;9.942;2023-07-09T08:41:54;7.63;;;4.35;;
33672;SDS011;20011;51.510;9.942;2023-07-09T08:47:34;6.97;;;4.47;;
33672;SDS011;20011;51.510;9.942;2023-07-09T08:50:11;4.75;;;4.10;;
33672;SDS011;20011;51.510;9.942;2023-07-09T08:52:42;6.13;;;4.43;;
33672;SDS011;20011;51.510;9.942;2023-07-09T08:55:23;7.10;;;4.35;;
33672;SDS011;20011;51.510;9.942;2023-07-09T08:58:03;4.85;;;4.30;;
33672;SDS011;20011;51.510;9.942;2023-07-09T09:03:40;6.38;;;4.32;;
33672;SDS011;20011;51.510;9.942;2023-07-09T09:06:19;5.60;;;4.50;;
33672;SDS011;20011;51.510;9.942;2023-07-09T09:14:41;7.03;;;4.43;;
33672;SDS011;20011;51.510;9.942;2023-07-09T09:17:15;8.30;;;4.03;;
33672;SDS011;20011;51.510;9.942;2023-07-09T09:19:46;6.70;;;4.97;;
33672;SDS011;20011;51.510;9.942;2023-07-09T09:22:23;6.43;;;4.50;;
33672;SDS011;20011;51.510;9.942;2023-07-09T09:27:59;6.13;;;4.60;;
33672;SDS011;20011;51.510;9.942;2023-07-09T09:30:28;6.60;;;4.22;;
33672;SDS011;20011;51.510;9.942;2023-07-09T09:32:57;10.02;;;4.63;;
33672;SDS011;20011;51.510;9.942;2023-07-09T09:35:29;8.55;;;4.22;;
33672;SDS011;20011;51.510;9.942;2023-07-09T09:37:58;7.90;;;3.90;;
33672;SDS011;20011;51.510;9.942;2023-07-09T09:40:26;7.53;;;4.18;;
33672;SDS011;20011;51.510;9.942;2023-07-09T09:42:55;6.73;;;3.50;;
33672;SDS011;20011;51.510;9.942;2023-07-09T09:45:28;5.72;;;3.72;;
33672;SDS011;20011;51.510;9.942;2023-07-09T09:48:00;5.57;;;4.05;;
33672;SDS011;20011;51.510;9.942;2023-07-09T09:50:35;7.07;;;4.57;;
33672;SDS011;20011;51.510;9.942;2023-07-09T09:53:06;8.13;;;4.07;;
33672;SDS011;20011;51.510;9.942;2023-07-09T09:55:35;6.60;;;4.32;;
33672;SDS011;20011;51.510;9.942;2023-07-09T09:58:10;6.57;;;4.28;;
33672;SDS011;20011;51.510;9.942;2023-07-09T10:00:40;5.47;;;4.20;;
33672;SDS011;20011;51.510;9.942;2023-07-09T10:03:14;7.13;;;4.32;;
33672;SDS011;20011;51.510;9.942;2023-07-09T10:05:43;6.53;;;4.43;;
33672;SDS011;20011;51.510;9.942;2023-07-09T10:11:10;6.72;;;4.45;;
33672;SDS011;20011;51.510;9.942;2023-07-09T10:13:44;6.60;;;3.88;;
33672;SDS011;20011;51.510;9.942;2023-07-09T10:16:34;6.18;;;4.10;;
33672;SDS011;20011;51.510;9.942;2023-07-09T10:19:12;5.50;;;3.50;;
33672;SDS011;20011;51.510;9.942;2023-07-09T10:22:43;10.60;;;4.15;;
33672;SDS011;20011;51.510;9.942;2023-07-09T10:38:58;5.60;;;4.38;;
33672;SDS011;20011;51.510;9.942;2023-07-09T10:41:31;7.00;;;4.15;;
33672;SDS011;20011;51.510;9.942;2023-07-09T10:44:05;7.43;;;4.05;;
33672;SDS011;20011;51.510;9.942;2023-07-09T10:46:42;6.63;;;4.20;;
33672;SDS011;20011;51.510;9.942;2023-07-09T10:49:14;6.00;;;3.65;;
33672;SDS011;20011;51.510;9.942;2023-07-09T10:54:24;5.40;;;3.72;;
33672;SDS011;20011;51.510;9.942;2023-07-09T10:57:09;6.68;;;3.90;;
33672;SDS011;20011;51.510;9.942;2023-07-09T10:59:43;5.15;;;3.78;;
33672;SDS011;20011;51.510;9.942;2023-07-09T11:02:19;6.15;;;3.83;;
33672;SDS011;20011;51.510;9.942;2023-07-09T11:04:54;4.60;;;3.80;;
33672;SDS011;20011;51.510;9.942;2023-07-09T11:10:03;5.97;;;3.83;;
33672;SDS011;20011;51.510;9.942;2023-07-09T11:12:42;5.25;;;4.13;;
33672;SDS011;20011;51.510;9.942;2023-07-09T11:15:29;8.00;;;4.30;;
33672;SDS011;20011;51.510;9.942;2023-07-09T11:18:06;7.60;;;4.18;;
33672;SDS011;20011;51.510;9.942;2023-07-09T11:20:35;5.88;;;3.90;;
33672;SDS011;20011;51.510;9.942;2023-07-09T11:23:21;5.93;;;4.07;;
33672;SDS011;20011;51.510;9.942;2023-07-09T11:31:41;7.03;;;4.07;;
33672;SDS011;20011;51.510;9.942;2023-07-09T11:36:59;6.75;;;4.32;;
33672;SDS011;20011;51.510;9.942;2023-07-09T11:39:28;4.68;;;3.60;;
33672;SDS011;20011;51.510;9.942;2023-07-09T11:45:06;5.68;;;3.72;;
33672;SDS011;20011;51.510;9.942;2023-07-09T11:47:38;6.15;;;3.95;;
33672;SDS011;20011;51.510;9.942;2023-07-09T11:50:15;5.47;;;3.83;;
33672;SDS011;20011;51.510;9.942;2023-07-09T11:52:53;4.35;;;3.60;;
33672;SDS011;20011;51.510;9.942;2023-07-09T11:55:43;7.15;;;4.20;;
33672;SDS011;20011;51.510;9.942;2023-07-09T11:58:15;4.27;;;3.47;;
33672;SDS011;20011;51.510;9.942;2023-07-09T12:00:48;4.43;;;3.45;;
33672;SDS011;20011;51.510;9.942;2023-07-09T12:03:21;5.40;;;4.18;;
33672;SDS011;20011;51.510;9.942;2023-07-09T12:05:54;5.65;;;4.10;;
33672;SDS011;20011;51.510;9.942;2023-07-09T12:08:30;6.43;;;4.10;;
33672;SDS011;20011;51.510;9.942;2023-07-09T12:11:03;4.88;;;3.63;;
33672;SDS011;20011;51.510;9.942;2023-07-09T12:13:38;5.75;;;4.15;;
33672;SDS011;20011;51.510;9.942;2023-07-09T12:19:13;4.95;;;3.55;;
33672;SDS011;20011;51.510;9.942;2023-07-09T12:21:43;4.55;;;3.65;;
33672;SDS011;20011;51.510;9.942;2023-07-09T12:24:35;5.15;;;3.67;;
33672;SDS011;20011;51.510;9.942;2023-07-09T12:27:14;8.73;;;4.20;;
33672;SDS011;20011;51.510;9.942;2023-07-09T12:29:45;5.30;;;3.53;;
33672;SDS011;20011;51.510;9.942;2023-07-09T12:32:15;4.30;;;3.72;;
33672;SDS011;20011;51.510;9.942;2023-07-09T12:34:47;8.40;;;4.38;;
33672;SDS011;20011;51.510;9.942;2023-07-09T12:37:16;7.03;;;4.10;;
33672;SDS011;20011;51.510;9.942;2023-07-09T12:39:47;5.93;;;4.25;;
33672;SDS011;20011;51.510;9.942;2023-07-09T12:42:17;5.82;;;4.13;;
33672;SDS011;20011;51.510;9.942;2023-07-09T12:44:46;5.43;;;4.05;;
33672;SDS011;20011;51.510;9.942;2023-07-09T12:47:15;8.30;;;4.30;;
33672;SDS011;20011;51.510;9.942;2023-07-09T12:49:44;6.90;;;3.90;;
33672;SDS011;20011;51.510;9.942;2023-07-09T12:52:17;12.60;;;4.47;;
33672;SDS011;20011;51.510;9.942;2023-07-09T12:55:00;7.30;;;3.80;;
33672;SDS011;20011;51.510;9.942;2023-07-09T12:57:28;6.70;;;3.67;;
33672;SDS011;20011;51.510;9.942;2023-07-09T12:59:57;8.45;;;3.70;;
33672;SDS011;20011;51.510;9.942;2023-07-09T13:02:26;6.63;;;4.40;;
33672;SDS011;20011;51.510;9.942;2023-07-09T13:05:01;5.30;;;4.03;;
33672;SDS011;20011;51.510;9.942;2023-07-09T13:07:42;6.45;;;3.30;;
33672;SDS011;20011;51.510;9.942;2023-07-09T13:10:27;5.65;;;3.55;;
33672;SDS011;20011;51.510;9.942;2023-07-09T13:13:01;6.28;;;3.78;;
33672;SDS011;20011;51.510;9.942;2023-07-09T13:18:05;7.30;;;4.15;;
33672;SDS011;20011;51.510;9.942;2023-07-09T13:20:36;6.35;;;3.72;;
33672;SDS011;20011;51.510;9.942;2023-07-09T13:23:10;7.68;;;4.15;;
33672;SDS011;20011;51.510;9.942;2023-07-09T13:25:41;5.80;;;3.88;;
33672;SDS011;20011;51.510;9.942;2023-07-09T13:30:47;7.40;;;4.38;;
33672;SDS011;20011;51.510;9.942;2023-07-09T13:33:16;7.65;;;4.00;;
33672;SDS011;20011;51.510;9.942;2023-07-09T13:35:46;5.07;;;3.63;;
33672;SDS011;20011;51.510;9.942;2023-07-09T13:38:18;5.68;;;3.83;;
33672;SDS011;20011;51.510;9.942;2023-07-09T13:40:47;6.05;;;4.05;;
33672;SDS011;20011;51.510;9.942;2023-07-09T13:43:20;8.00;;;3.95;;
33672;SDS011;20011;51.510;9.942;2023-07-09T13:45:55;8.63;;;4.70;;
33672;SDS011;20011;51.510;9.942;2023-07-09T13:48:25;7.60;;;3.80;;
33672;SDS011;20011;51.510;9.942;2023-07-09T13:50:55;5.35;;;3.80;;
33672;SDS011;20011;51.510;9.942;2023-07-09T13:53:24;6.57;;;4.15;;
33672;SDS011;20011;51.510;9.942;2023-07-09T13:55:55;5.65;;;4.28;;
33672;SDS011;20011;51.510;9.942;2023-07-09T13:58:23;8.20;;;4.28;;
33672;SDS011;20011;51.510;9.942;2023-07-09T14:00:56;6.25;;;3.60;;
33672;SDS011;20011;51.510;9.942;2023-07-09T14:03:33;6.55;;;3.85;;
33672;SDS011;20011;51.510;9.942;2023-07-09T14:06:01;4.75;;;3.28;;
33672;SDS011;20011;51.510;9.942;2023-07-09T14:08:28;7.22;;;4.15;;
33672;SDS011;20011;51.510;9.942;2023-07-09T14:10:55;6.57;;;4.03;;
33672;SDS011;20011;51.510;9.942;2023-07-09T14:13:23;6.82;;;4.28;;
33672;SDS011;20011;51.510;9.942;2023-07-09T14:15:52;5.13;;;3.47;;
33672;SDS011;20011;51.510;9.942;2023-07-09T14:18:20;8.15;;;4.45;;
33672;SDS011;20011;51.510;9.942;2023-07-09T14:20:49;6.85;;;4.20;;
33672;SDS011;20011;51.510;9.942;2023-07-09T14:23:17;6.20;;;4.30;;
33672;SDS011;20011;51.510;9.942;2023-07-09T14:25:45;9.23;;;3.92;;
33672;SDS011;20011;51.510;9.942;2023-07-09T14:30:40;7.68;;;3.80;;
33672;SDS011;20011;51.510;9.942;2023-07-09T14:33:14;7.93;;;4.05;;
33672;SDS011;20011;51.510;9.942;2023-07-09T14:35:43;7.30;;;3.90;;
33672;SDS011;20011;51.510;9.942;2023-07-09T14:40:43;6.32;;;4.63;;
33672;SDS011;20011;51.510;9.942;2023-07-09T14:43:11;6.70;;;4.05;;
33672;SDS011;20011;51.510;9.942;2023-07-09T14:45:39;6.88;;;4.18;;
33672;SDS011;20011;51.510;9.942;2023-07-09T14:48:13;5.90;;;4.25;;
33672;SDS011;20011;51.510;9.942;2023-07-09T14:50:42;5.43;;;3.83;;
33672;SDS011;20011;51.510;9.942;2023-07-09T14:53:14;6.45;;;3.92;;
33672;SDS011;20011;51.510;9.942;2023-07-09T14:55:53;8.57;;;4.25;;
33672;SDS011;20011;51.510;9.942;2023-07-09T14:58:21;7.65;;;4.20;;
33672;SDS011;20011;51.510;9.942;2023-07-09T15:00:50;6.13;;;3.83;;
33672;SDS011;20011;51.510;9.942;2023-07-09T15:03:21;6.65;;;4.50;;
33672;SDS011;20011;51.510;9.942;2023-07-09T15:05:50;6.85;;;4.00;;
33672;SDS011;20011;51.510;9.942;2023-07-09T15:08:19;5.07;;;3.95;;
33672;SDS011;20011;51.510;9.942;2023-07-09T15:10:51;8.40;;;3.88;;
33672;SDS011;20011;51.510;9.942;2023-07-09T15:13:22;8.57;;;4.07;;
33672;SDS011;20011;51.510;9.942;2023-07-09T15:15:56;6.93;;;4.55;;
33672;SDS011;20011;51.510;9.942;2023-07-09T15:18:23;8.32;;;4.03;;
33672;SDS011;20011;51.510;9.942;2023-07-09T15:20:54;5.78;;;4.22;;
33672;SDS011;20011;51.510;9.942;2023-07-09T15:23:24;6.25;;;4.45;;
33672;SDS011;20011;51.510;9.942;2023-07-09T15:25:51;6.85;;;4.07;;
33672;SDS011;20011;51.510;9.942;2023-07-09T15:28:19;5.88;;;4.00;;
33672;SDS011;20011;51.510;9.942;2023-07-09T15:30:46;5.80;;;3.88;;
33672;SDS011;20011;51.510;9.942;2023-07-09T15:33:17;8.18;;;4.60;;
33672;SDS011;20011;51.510;9.942;2023-07-09T15:35:46;6.63;;;3.83;;
33672;SDS011;20011;51.510;9.942;2023-07-09T15:40:46;7.22;;;3.90;;
33672;SDS011;20011;51.510;9.942;2023-07-09T15:43:15;5.25;;;3.83;;
33672;SDS011;20011;51.510;9.942;2023-07-09T15:45:44;5.85;;;3.92;;
33672;SDS011;20011;51.510;9.942;2023-07-09T15:50:52;6.20;;;3.95;;
33672;SDS011;20011;51.510;9.942;2023-07-09T15:53:19;6.95;;;3.70;;
33672;SDS011;20011;51.510;9.942;2023-07-09T15:55:47;7.65;;;3.72;;
33672;SDS011;20011;51.510;9.942;2023-07-09T15:58:18;8.15;;;4.47;;
33672;SDS011;20011;51.510;9.942;2023-07-09T16:00:50;6.85;;;4.50;;
33672;SDS011;20011;51.510;9.942;2023-07-09T16:03:17;6.88;;;4.22;;
33672;SDS011;20011;51.510;9.942;2023-07-09T16:05:48;6.97;;;4.22;;
33672;SDS011;20011;51.510;9.942;2023-07-09T16:08:16;7.15;;;4.32;;
33672;SDS011;20011;51.510;9.942;2023-07-09T16:10:43;4.60;;;3.75;;
33672;SDS011;20011;51.510;9.942;2023-07-09T16:13:15;5.22;;;4.18;;
33672;SDS011;20011;51.510;9.942;2023-07-09T16:15:46;6.43;;;3.70;;
33672;SDS011;20011;51.510;9.942;2023-07-09T16:18:14;5.25;;;3.47;;
33672;SDS011;20011;51.510;9.942;2023-07-09T16:20:41;5.13;;;3.75;;
33672;SDS011;20011;51.510;9.942;2023-07-09T16:23:19;8.20;;;4.43;;